createdAt,value
2023-04-27T00:01:18.938Z,4.82
2023-04-27T00:03:46.829Z,8.10
2023-04-27T00:06:14.564Z,5.97
2023-04-27T00:08:42.273Z,5.80
2023-04-27T00:11:09.961Z,7.03
2023-04-27T00:13:37.465Z,8.60
2023-04-27T00:16:05.427Z,5.70
2023-04-27T00:18:33.096Z,5.20
2023-04-27T00:21:01.144Z,5.35
2023-04-27T00:23:28.872Z,6.07
2023-04-27T00:25:56.584Z,6.70
2023-04-27T00:28:24.109Z,4.70
2023-04-27T00:30:54.667Z,3.95
2023-04-27T00:33:22.203Z,12.07
2023-04-27T00:35:49.830Z,4.20
2023-04-27T00:38:17.522Z,6.00
2023-04-27T00:40:45.149Z,6.60
2023-04-27T00:43:12.942Z,7.38
2023-04-27T00:45:43.590Z,5.55
2023-04-27T00:48:12.488Z,7.05
2023-04-27T00:50:41.980Z,4.10
2023-04-27T00:53:09.653Z,6.90
2023-04-27T00:55:37.171Z,6.78
2023-04-27T00:58:04.872Z,4.78
2023-04-27T01:00:32.757Z,5.70
2023-04-27T01:03:02.791Z,4.63
2023-04-27T01:05:32.486Z,5.72
2023-04-27T01:08:00.481Z,7.80
2023-04-27T01:10:28.678Z,10.88
2023-04-27T01:12:56.474Z,7.32
2023-04-27T01:15:24.183Z,6.00
2023-04-27T01:18:01.514Z,12.35
2023-04-27T01:20:32.821Z,5.50
2023-04-27T01:23:00.437Z,4.63
2023-04-27T01:25:27.987Z,6.22
2023-04-27T01:27:55.577Z,8.52
2023-04-27T01:30:23.383Z,4.90
2023-04-27T01:32:51.140Z,6.60
2023-04-27T01:35:20.507Z,6.55
2023-04-27T01:37:48.178Z,7.72
2023-04-27T01:40:18.644Z,7.53
2023-04-27T01:42:48.210Z,6.05
2023-04-27T01:45:16.213Z,6.93
2023-04-27T01:47:44.080Z,11.15
2023-04-27T01:50:12.616Z,5.25
2023-04-27T01:52:40.725Z,6.82
2023-04-27T01:55:10.197Z,9.57
2023-04-27T01:57:38.536Z,5.72
2023-04-27T02:00:07.011Z,5.85
2023-04-27T02:02:57.597Z,11.20
2023-04-27T02:05:25.483Z,6.75
2023-04-27T02:07:54.660Z,6.20
2023-04-27T02:10:23.974Z,5.22
2023-04-27T02:12:57.582Z,5.13
2023-04-27T02:15:26.063Z,18.45
2023-04-27T02:17:53.785Z,7.13
2023-04-27T02:20:21.528Z,7.88
2023-04-27T02:22:49.192Z,11.05
2023-04-27T02:25:17.092Z,14.00
2023-04-27T02:27:44.916Z,8.57
2023-04-27T02:30:14.949Z,8.60
2023-04-27T02:32:42.931Z,8.57
2023-04-27T02:35:11.146Z,8.75
2023-04-27T02:37:38.768Z,7.45
2023-04-27T02:40:10.376Z,6.60
2023-04-27T02:42:39.087Z,7.68
2023-04-27T02:45:08.374Z,7.55
2023-04-27T02:47:37.922Z,12.63
2023-04-27T02:50:06.083Z,12.15
2023-04-27T02:52:35.843Z,9.63
2023-04-27T02:55:04.061Z,9.63
2023-04-27T02:57:33.988Z,8.38
2023-04-27T03:00:03.606Z,8.02
2023-04-27T03:02:32.855Z,11.77
2023-04-27T03:05:03.956Z,9.05
2023-04-27T03:07:32.265Z,8.70
2023-04-27T03:09:59.855Z,14.88
2023-04-27T03:12:31.720Z,8.95
2023-04-27T03:15:01.213Z,9.43
2023-04-27T03:17:32.197Z,7.55
2023-04-27T03:19:59.837Z,11.27
2023-04-27T03:22:27.724Z,13.35
2023-04-27T03:24:55.270Z,9.32
2023-04-27T03:27:23.238Z,11.15
2023-04-27T03:29:54.322Z,9.60
2023-04-27T03:32:22.285Z,23.48
2023-04-27T03:34:49.903Z,17.73
2023-04-27T03:37:18.445Z,14.38
2023-04-27T03:39:46.087Z,12.98
2023-04-27T03:42:14.015Z,9.82
2023-04-27T03:44:41.746Z,14.27
2023-04-27T03:47:09.909Z,17.83
2023-04-27T03:49:39.781Z,18.05
2023-04-27T03:52:08.712Z,20.13
2023-04-27T03:54:39.960Z,16.73
2023-04-27T03:57:07.837Z,15.75
2023-04-27T03:59:36.778Z,18.52
2023-04-27T04:02:05.874Z,16.33
2023-04-27T04:04:33.761Z,17.80
2023-04-27T04:07:01.863Z,15.70
2023-04-27T04:09:29.764Z,13.35
2023-04-27T04:11:57.989Z,15.10
2023-04-27T04:14:25.728Z,20.80
2023-04-27T04:16:53.254Z,17.00
2023-04-27T04:19:22.275Z,12.07
2023-04-27T04:21:50.061Z,16.42
2023-04-27T04:24:19.073Z,15.93
2023-04-27T04:26:47.326Z,17.45
2023-04-27T04:29:15.512Z,9.07
2023-04-27T04:31:43.693Z,12.05
2023-04-27T04:34:11.494Z,16.50
2023-04-27T04:36:38.969Z,14.57
2023-04-27T04:39:07.220Z,16.15
2023-04-27T04:41:34.855Z,16.15
2023-04-27T04:44:03.288Z,16.83
2023-04-27T04:46:31.108Z,14.63
2023-04-27T04:48:58.852Z,19.20
2023-04-27T04:51:26.575Z,11.15
2023-04-27T04:53:54.139Z,13.27
2023-04-27T04:56:24.035Z,10.50
2023-04-27T04:58:52.049Z,11.70
2023-04-27T05:01:19.667Z,13.98
2023-04-27T05:03:49.523Z,10.63
2023-04-27T05:06:17.170Z,12.60
2023-04-27T05:08:44.639Z,20.58
2023-04-27T05:11:12.146Z,11.50
2023-04-27T05:13:40.478Z,22.60
2023-04-27T05:16:08.880Z,13.63
2023-04-27T05:18:36.589Z,12.07
2023-04-27T05:21:04.079Z,15.60
2023-04-27T05:23:31.665Z,10.88
2023-04-27T05:25:59.205Z,14.63
2023-04-27T05:28:27.229Z,10.13
2023-04-27T05:30:55.176Z,8.88
2023-04-27T05:33:23.644Z,8.40
2023-04-27T05:35:52.482Z,15.05
2023-04-27T05:38:19.932Z,5.60
2023-04-27T05:40:47.619Z,14.20
2023-04-27T05:43:15.584Z,11.27
2023-04-27T05:45:43.408Z,12.15
2023-04-27T05:48:11.054Z,7.68
2023-04-27T05:50:38.755Z,8.80
2023-04-27T05:53:07.244Z,12.70
2023-04-27T05:55:34.807Z,9.02
2023-04-27T05:58:08.231Z,7.38
2023-04-27T06:00:37.258Z,7.53
2023-04-27T06:03:05.372Z,10.75
2023-04-27T06:05:34.609Z,12.30
2023-04-27T06:08:02.414Z,10.52
2023-04-27T06:10:30.131Z,16.45
2023-04-27T06:13:00.917Z,9.48
2023-04-27T06:15:28.845Z,9.35
2023-04-27T06:17:56.924Z,8.75
2023-04-27T06:20:24.691Z,6.00
2023-04-27T06:22:52.701Z,8.65
2023-04-27T06:25:20.290Z,11.07
2023-04-27T06:27:49.499Z,10.00
2023-04-27T06:30:17.888Z,8.90
2023-04-27T06:32:46.205Z,7.70
2023-04-27T06:35:13.988Z,10.15
2023-04-27T06:37:42.003Z,11.23
2023-04-27T06:40:09.950Z,10.63
2023-04-27T06:42:37.982Z,11.10
2023-04-27T06:45:07.381Z,6.35
2023-04-27T06:47:35.213Z,10.68
2023-04-27T06:50:04.173Z,7.57
2023-04-27T06:52:33.826Z,7.05
2023-04-27T06:55:01.632Z,7.38
2023-04-27T06:57:32.791Z,8.18
2023-04-27T07:00:00.754Z,9.07
2023-04-27T07:02:28.535Z,6.63
2023-04-27T07:04:56.247Z,6.88
2023-04-27T07:07:24.089Z,4.43
2023-04-27T07:09:51.960Z,7.65
2023-04-27T07:12:19.540Z,6.13
2023-04-27T07:14:47.161Z,7.10
2023-04-27T07:17:14.723Z,5.97
2023-04-27T07:19:42.499Z,7.78
2023-04-27T07:22:10.348Z,8.43
2023-04-27T07:24:37.993Z,6.75
2023-04-27T07:27:05.575Z,6.65
2023-04-27T07:29:33.792Z,5.18
2023-04-27T07:32:02.335Z,4.70
2023-04-27T07:34:41.180Z,7.55
2023-04-27T07:39:45.105Z,5.70
2023-04-27T07:42:12.739Z,7.45
2023-04-27T07:44:41.063Z,6.20
2023-04-27T07:47:09.109Z,6.00
2023-04-27T07:49:38.446Z,12.48
2023-04-27T07:52:06.263Z,8.57
2023-04-27T07:54:35.132Z,5.85
2023-04-27T07:57:09.116Z,5.03
2023-04-27T07:59:37.211Z,12.25
2023-04-27T08:02:18.573Z,9.73
2023-04-27T08:04:48.956Z,8.63
2023-04-27T08:07:18.004Z,11.85
2023-04-27T08:09:45.954Z,10.23
2023-04-27T08:12:13.898Z,12.30
2023-04-27T08:14:41.479Z,7.32
2023-04-27T08:17:09.297Z,8.27
2023-04-27T08:19:37.260Z,6.45
2023-04-27T08:22:05.227Z,8.93
2023-04-27T08:24:33.079Z,5.90
2023-04-27T08:27:01.077Z,14.07
2023-04-27T08:29:29.340Z,6.00
2023-04-27T08:32:00.121Z,8.23
2023-04-27T08:34:29.211Z,5.18
2023-04-27T08:36:57.349Z,7.40
2023-04-27T08:39:25.621Z,7.68
2023-04-27T08:41:53.570Z,10.63
2023-04-27T08:44:21.290Z,9.73
2023-04-27T08:46:49.724Z,7.40
2023-04-27T08:49:17.931Z,6.60
2023-04-27T08:51:45.662Z,9.65
2023-04-27T08:54:13.333Z,9.48
2023-04-27T08:56:41.055Z,7.50
2023-04-27T08:59:16.295Z,3.38
2023-04-27T09:01:46.534Z,6.07
2023-04-27T09:04:14.592Z,6.15
2023-04-27T09:06:42.474Z,4.45
2023-04-27T09:09:11.512Z,5.75
2023-04-27T09:11:39.832Z,6.72
2023-04-27T09:14:21.038Z,7.53
2023-04-27T09:16:59.464Z,6.82
2023-04-27T09:19:29.399Z,6.72
2023-04-27T09:22:07.676Z,8.15
2023-04-27T09:24:35.869Z,3.45
2023-04-27T09:27:05.236Z,6.10
2023-04-27T09:29:38.111Z,7.65
2023-04-27T09:32:20.898Z,5.53
2023-04-27T09:34:48.637Z,4.07
2023-04-27T09:37:16.764Z,5.05
2023-04-27T09:39:46.348Z,8.57
2023-04-27T09:42:14.015Z,9.07
2023-04-27T09:44:41.629Z,4.03
2023-04-27T09:47:10.892Z,5.15
2023-04-27T09:49:39.014Z,4.00
2023-04-27T09:52:06.771Z,6.25
2023-04-27T09:54:35.912Z,3.78
2023-04-27T09:57:46.870Z,4.47
2023-04-27T10:00:23.638Z,7.13
2023-04-27T10:03:00.082Z,3.15
2023-04-27T10:05:41.138Z,6.03
2023-04-27T10:08:10.475Z,3.97
2023-04-27T10:10:48.756Z,3.53
2023-04-27T10:13:24.893Z,5.28
2023-04-27T10:15:53.731Z,3.20
2023-04-27T10:18:31.288Z,6.22
2023-04-27T10:21:10.678Z,2.75
2023-04-27T10:23:48.572Z,4.78
2023-04-27T10:26:26.737Z,6.13
2023-04-27T10:29:01.208Z,4.60
2023-04-27T10:31:30.114Z,4.55
2023-04-27T10:34:11.422Z,3.38
2023-04-27T10:36:41.093Z,4.30
2023-04-27T10:39:25.561Z,4.05
2023-04-27T10:42:01.209Z,5.00
2023-04-27T10:44:31.369Z,3.30
2023-04-27T10:47:01.659Z,2.92
2023-04-27T10:49:30.769Z,3.35
2023-04-27T10:51:59.849Z,4.78
2023-04-27T10:54:29.215Z,3.50
2023-04-27T10:57:10.985Z,4.90
2023-04-27T10:59:52.439Z,4.18
2023-04-27T11:02:28.268Z,3.80
2023-04-27T11:04:56.749Z,5.10
2023-04-27T11:07:29.271Z,5.38
2023-04-27T11:09:57.058Z,5.97
2023-04-27T11:12:24.864Z,5.90
2023-04-27T11:14:58.669Z,6.07
2023-04-27T11:17:30.741Z,5.20
2023-04-27T11:19:58.358Z,7.43
2023-04-27T11:22:26.039Z,4.80
2023-04-27T11:24:53.825Z,4.55
2023-04-27T11:27:23.503Z,7.13
2023-04-27T11:29:51.185Z,8.98
2023-04-27T11:32:23.423Z,6.72
2023-04-27T11:34:54.669Z,4.13
2023-04-27T11:37:25.687Z,4.50
2023-04-27T11:40:00.074Z,3.92
2023-04-27T11:42:29.021Z,4.10
2023-04-27T11:45:11.126Z,7.30
2023-04-27T11:47:41.094Z,3.85
2023-04-27T11:50:09.460Z,5.72
2023-04-27T11:52:40.331Z,7.43
2023-04-27T11:55:10.826Z,7.50
2023-04-27T11:57:38.980Z,4.85
2023-04-27T12:00:11.484Z,4.43
2023-04-27T12:02:44.735Z,8.50
2023-04-27T12:05:15.556Z,3.38
2023-04-27T12:07:43.623Z,4.82
2023-04-27T12:10:11.920Z,4.75
2023-04-27T12:12:39.648Z,5.03
2023-04-27T12:15:08.684Z,6.18
2023-04-27T12:17:39.217Z,11.70
2023-04-27T12:20:07.445Z,4.85
2023-04-27T12:22:36.342Z,6.82
2023-04-27T12:25:05.386Z,5.35
2023-04-27T12:27:34.507Z,4.85
2023-04-27T12:30:02.228Z,4.63
2023-04-27T12:32:33.019Z,8.00
2023-04-27T12:35:00.786Z,4.90
2023-04-27T12:37:31.621Z,6.45
2023-04-27T12:39:59.253Z,5.22
2023-04-27T12:42:26.968Z,9.20
2023-04-27T12:44:54.746Z,6.15
2023-04-27T12:47:43.110Z,9.02
2023-04-27T12:50:10.247Z,5.47
2023-04-27T12:52:37.890Z,9.02
2023-04-27T12:55:06.491Z,8.85
2023-04-27T12:57:34.505Z,5.85
2023-04-27T13:00:02.451Z,4.05
2023-04-27T13:02:34.118Z,3.55
2023-04-27T13:05:02.172Z,3.22
2023-04-27T13:07:31.254Z,4.35
2023-04-27T13:09:58.843Z,5.82
2023-04-27T13:12:26.840Z,4.40
2023-04-27T13:14:54.520Z,4.13
2023-04-27T13:17:22.253Z,3.92
2023-04-27T13:19:49.776Z,3.72
2023-04-27T13:22:17.426Z,3.78
2023-04-27T13:24:45.287Z,4.43
2023-04-27T13:27:13.057Z,6.80
2023-04-27T13:29:40.709Z,4.38
2023-04-27T13:32:08.403Z,6.32
2023-04-27T13:34:36.055Z,4.55
2023-04-27T13:37:04.383Z,3.60
2023-04-27T13:39:34.338Z,5.78
2023-04-27T13:42:02.178Z,3.80
2023-04-27T13:44:29.784Z,4.25
2023-04-27T13:46:57.769Z,3.33
2023-04-27T13:49:26.087Z,7.20
2023-04-27T13:51:53.608Z,5.13
2023-04-27T13:54:21.655Z,2.78
2023-04-27T13:56:49.270Z,3.25
2023-04-27T13:59:17.334Z,4.05
2023-04-27T14:01:45.051Z,5.80
2023-04-27T14:04:12.764Z,3.10
2023-04-27T14:06:40.646Z,3.13
2023-04-27T14:09:09.437Z,6.15
2023-04-27T14:11:48.605Z,3.92
2023-04-27T14:14:20.954Z,2.70
2023-04-27T14:16:49.066Z,7.43
2023-04-27T14:19:17.336Z,3.28
2023-04-27T14:21:45.521Z,3.25
2023-04-27T14:24:13.561Z,5.63
2023-04-27T14:26:44.126Z,5.07
2023-04-27T14:29:12.179Z,2.63
2023-04-27T14:31:40.885Z,7.50
2023-04-27T14:34:09.011Z,3.15
2023-04-27T14:36:36.755Z,2.38
2023-04-27T14:39:06.582Z,3.78
2023-04-27T14:41:35.621Z,2.58
2023-04-27T14:44:04.746Z,8.82
2023-04-27T14:46:32.474Z,2.53
2023-04-27T14:49:00.173Z,5.15
2023-04-27T14:51:28.970Z,4.53
2023-04-27T14:53:56.489Z,5.03
2023-04-27T14:56:24.280Z,6.20
2023-04-27T14:58:51.824Z,5.40
2023-04-27T15:01:19.549Z,4.38
2023-04-27T15:03:47.514Z,6.18
2023-04-27T15:06:15.501Z,6.07
2023-04-27T15:08:43.031Z,5.28
2023-04-27T15:11:10.825Z,6.63
2023-04-27T15:13:38.322Z,4.15
2023-04-27T15:16:07.463Z,10.43
2023-04-27T15:18:35.483Z,4.15
2023-04-27T15:21:03.878Z,3.85
2023-04-27T15:23:31.878Z,6.07
2023-04-27T15:25:59.467Z,6.13
2023-04-27T15:28:26.922Z,8.73
2023-04-27T15:30:54.638Z,5.32
2023-04-27T15:33:22.502Z,7.55
2023-04-27T15:35:50.644Z,2.83
2023-04-27T15:38:18.346Z,6.75
2023-04-27T15:40:45.856Z,6.10
2023-04-27T15:43:15.067Z,7.53
2023-04-27T15:45:44.186Z,3.33
2023-04-27T15:48:12.299Z,2.63
2023-04-27T15:50:40.268Z,3.63
2023-04-27T15:53:07.979Z,4.40
2023-04-27T15:55:35.617Z,7.95
2023-04-27T15:58:03.564Z,6.45
2023-04-27T16:00:31.240Z,4.47
2023-04-27T16:02:59.054Z,4.72
2023-04-27T16:05:26.986Z,3.72
2023-04-27T16:07:54.495Z,3.72
2023-04-27T16:10:22.073Z,5.32
2023-04-27T16:12:50.423Z,9.68
2023-04-27T16:15:18.578Z,6.60
2023-04-27T16:17:46.554Z,5.07
2023-04-27T16:20:14.327Z,4.75
2023-04-27T16:22:41.953Z,5.18
2023-04-27T16:25:12.576Z,5.45
2023-04-27T16:27:40.166Z,3.55
2023-04-27T16:30:08.309Z,5.00
2023-04-27T16:32:37.433Z,12.35
2023-04-27T16:35:05.625Z,6.60
2023-04-27T16:37:33.998Z,9.20
2023-04-27T16:40:06.867Z,7.57
2023-04-27T16:42:34.998Z,13.98
2023-04-27T16:45:03.105Z,6.47
2023-04-27T16:47:34.458Z,7.63
2023-04-27T16:50:02.549Z,6.97
2023-04-27T16:52:32.879Z,7.25
2023-04-27T16:55:00.737Z,8.50
2023-04-27T16:57:28.815Z,11.32
2023-04-27T17:00:01.095Z,13.35
2023-04-27T17:02:29.373Z,8.48
2023-04-27T17:04:59.654Z,12.93
2023-04-27T17:07:32.844Z,13.13
2023-04-27T17:10:00.744Z,10.90
2023-04-27T17:12:28.365Z,10.57
2023-04-27T17:14:56.302Z,13.73
2023-04-27T17:17:23.894Z,15.50
2023-04-27T17:19:51.609Z,14.65
2023-04-27T17:22:19.287Z,20.98
2023-04-27T17:24:46.963Z,15.55
2023-04-27T17:27:14.695Z,22.30
2023-04-27T17:29:42.215Z,14.35
2023-04-27T17:32:09.948Z,8.77
2023-04-27T17:34:37.721Z,8.18
2023-04-27T17:37:05.481Z,12.65
2023-04-27T17:39:33.773Z,18.65
2023-04-27T17:42:01.691Z,15.93
2023-04-27T17:44:29.316Z,13.80
2023-04-27T17:46:57.136Z,11.98
2023-04-27T17:49:24.687Z,24.85
2023-04-27T17:51:52.392Z,18.52
2023-04-27T17:54:19.974Z,15.38
2023-04-27T17:56:47.859Z,20.83
2023-04-27T17:59:15.596Z,12.60
2023-04-27T18:01:43.865Z,11.35
2023-04-27T18:04:11.501Z,17.90
2023-04-27T18:06:39.274Z,14.80
2023-04-27T18:09:06.884Z,14.95
2023-04-27T18:11:47.676Z,11.65
2023-04-27T18:14:15.704Z,14.95
2023-04-27T18:16:44.057Z,13.65
2023-04-27T18:19:12.236Z,15.23
2023-04-27T18:21:40.131Z,11.25
2023-04-27T18:24:08.603Z,10.80
2023-04-27T18:26:36.929Z,18.83
2023-04-27T18:29:04.638Z,18.38
2023-04-27T18:31:32.535Z,19.80
2023-04-27T18:34:00.155Z,17.10
2023-04-27T18:36:28.308Z,15.45
2023-04-27T18:38:58.064Z,13.15
2023-04-27T18:41:26.101Z,10.20
2023-04-27T18:43:53.725Z,19.83
2023-04-27T18:46:21.536Z,8.23
2023-04-27T18:48:49.186Z,18.25
2023-04-27T18:51:16.867Z,11.95
2023-04-27T18:53:44.360Z,17.15
2023-04-27T18:56:12.384Z,17.25
2023-04-27T18:58:39.918Z,11.70
2023-04-27T19:01:07.485Z,17.83
2023-04-27T19:03:35.375Z,14.10
2023-04-27T19:06:03.159Z,10.90
2023-04-27T19:08:30.898Z,18.40
2023-04-27T19:10:58.638Z,15.77
2023-04-27T19:13:27.386Z,19.33
2023-04-27T19:15:55.195Z,14.35
2023-04-27T19:18:22.946Z,13.05
2023-04-27T19:20:51.731Z,15.05
2023-04-27T19:23:19.509Z,13.45
2023-04-27T19:25:48.443Z,23.15
2023-04-27T19:28:18.858Z,24.15
2023-04-27T19:30:47.643Z,15.30
2023-04-27T19:33:19.645Z,19.90
2023-04-27T19:35:47.905Z,14.80
2023-04-27T19:38:15.441Z,16.23
2023-04-27T19:40:43.087Z,14.35
2023-04-27T19:43:12.005Z,22.77
2023-04-27T19:45:41.970Z,16.83
2023-04-27T19:48:09.639Z,23.13
2023-04-27T19:50:41.300Z,25.70
2023-04-27T19:53:09.106Z,17.48
2023-04-27T19:55:37.210Z,20.80
2023-04-27T19:58:04.872Z,24.75
2023-04-27T20:00:32.670Z,21.85
2023-04-27T20:03:00.509Z,29.92
2023-04-27T20:05:28.589Z,22.38
2023-04-27T20:07:56.321Z,27.90
2023-04-27T20:10:23.856Z,19.00
2023-04-27T20:12:56.887Z,26.85
2023-04-27T20:15:25.800Z,24.42
2023-04-27T20:17:53.874Z,24.13
2023-04-27T20:20:21.577Z,23.67
2023-04-27T20:22:49.683Z,19.20
2023-04-27T20:25:17.209Z,29.20
2023-04-27T20:27:44.854Z,28.05
2023-04-27T20:30:12.447Z,21.27
2023-04-27T20:32:40.507Z,30.33
2023-04-27T20:35:11.533Z,24.23
2023-04-27T20:37:42.051Z,23.55
2023-04-27T20:40:14.563Z,26.42
2023-04-27T20:42:42.655Z,21.13
2023-04-27T20:45:11.643Z,17.63
2023-04-27T20:47:39.299Z,25.38
2023-04-27T20:50:08.232Z,18.75
2023-04-27T20:52:36.005Z,23.27
2023-04-27T20:55:04.620Z,16.48
2023-04-27T20:57:32.462Z,19.88
2023-04-27T21:00:00.263Z,28.85
2023-04-27T21:02:28.017Z,20.08
2023-04-27T21:04:55.783Z,23.63
2023-04-27T21:07:23.487Z,26.63
2023-04-27T21:09:52.453Z,16.48
2023-04-27T21:12:20.070Z,20.67
2023-04-27T21:14:48.137Z,25.20
2023-04-27T21:17:15.724Z,20.13
2023-04-27T21:19:43.517Z,17.92
2023-04-27T21:22:11.269Z,17.83
2023-04-27T21:24:38.786Z,17.90
2023-04-27T21:27:06.597Z,21.17
2023-04-27T21:29:37.357Z,17.05
2023-04-27T21:32:05.120Z,16.58
2023-04-27T21:34:32.750Z,17.35
2023-04-27T21:37:00.277Z,20.35
2023-04-27T21:39:27.980Z,15.70
2023-04-27T21:41:55.550Z,25.67
2023-04-27T21:44:23.178Z,20.50
2023-04-27T21:46:51.543Z,20.52
2023-04-27T21:49:19.340Z,18.52
2023-04-27T21:51:46.966Z,26.73
2023-04-27T21:54:14.670Z,20.55
2023-04-27T21:56:42.702Z,16.23
2023-04-27T21:59:10.296Z,14.48
2023-04-27T22:01:38.000Z,15.68
2023-04-27T22:04:06.432Z,13.00
2023-04-27T22:06:34.153Z,16.15
2023-04-27T22:09:02.028Z,15.15
2023-04-27T22:11:29.760Z,21.10
2023-04-27T22:13:57.441Z,14.70
2023-04-27T22:16:25.051Z,13.90
2023-04-27T22:18:53.925Z,19.17
2023-04-27T22:21:21.666Z,13.15
2023-04-27T22:23:49.303Z,14.70
2023-04-27T22:26:17.293Z,18.90
2023-04-27T22:28:44.839Z,13.18
2023-04-27T22:31:12.536Z,24.60
2023-04-27T22:33:40.191Z,17.48
2023-04-27T22:36:08.148Z,12.98
2023-04-27T22:38:35.865Z,13.80
2023-04-27T22:41:03.399Z,14.23
2023-04-27T22:43:31.007Z,18.27
2023-04-27T22:45:58.498Z,23.02
2023-04-27T22:48:26.107Z,15.52
2023-04-27T22:50:53.699Z,12.85
2023-04-27T22:53:21.677Z,20.33
2023-04-27T22:55:49.299Z,16.73
2023-04-27T22:58:16.850Z,10.20
2023-04-27T23:00:44.453Z,14.48
2023-04-27T23:03:12.287Z,17.08
2023-04-27T23:05:40.220Z,15.50
2023-04-27T23:08:07.724Z,14.32
2023-04-27T23:10:38.798Z,13.32
2023-04-27T23:13:07.365Z,20.38
2023-04-27T23:15:35.012Z,17.60
2023-04-27T23:18:02.678Z,13.55
2023-04-27T23:20:30.372Z,16.77
2023-04-27T23:22:58.102Z,21.83
2023-04-27T23:25:25.670Z,18.73
2023-04-27T23:27:53.445Z,12.68
2023-04-27T23:30:22.090Z,15.93
2023-04-27T23:32:50.105Z,16.33
2023-04-27T23:35:17.852Z,15.02
2023-04-27T23:37:45.436Z,15.38
2023-04-27T23:40:13.249Z,15.55
2023-04-27T23:42:40.826Z,13.48
2023-04-27T23:45:08.597Z,11.77
2023-04-27T23:47:37.142Z,18.85
2023-04-27T23:50:05.324Z,25.67
2023-04-27T23:52:34.580Z,22.67
2023-04-27T23:55:02.274Z,21.83
2023-04-27T23:57:33.574Z,36.60
